Time;durP1;ratioP1;P1;durP2;ratioP2;P2;SDS_P1;SDS_P2;PMS_P1;PMS_P2;Temp;Humidity;BMP_temperature;BMP_pressure;BME280_temperature;BME280_humidity;BME280_pressure;Samples;Min_cycle;Max_cycle;Signal;HPM_P1;HPM_P2
2022/11/13 00:01:14;;;;;;;17.08;6.57;;;7.20;99.90;;;;;;5036719;28;20025;-67
2022/11/13 00:03:39;;;;;;;10.98;5.60;;;7.10;99.90;;;;;;5005616;28;20045;-67
2022/11/13 00:06:05;;;;;;;12.95;6.25;;;7.10;99.90;;;;;;5027184;28;20026;-67
2022/11/13 00:08:31;;;;;;;11.95;5.90;;;7.00;99.90;;;;;;5034251;28;20021;-67
2022/11/13 00:11:05;;;;;;;11.30;5.63;;;7.00;99.90;;;;;;5031478;28;20029;-67
2022/11/13 00:13:31;;;;;;;11.52;5.85;;;6.90;99.90;;;;;;5027452;28;20097;-67
2022/11/13 00:16:03;;;;;;;10.70;5.85;;;6.90;99.90;;;;;;5037342;28;20506;-67
2022/11/13 00:18:30;;;;;;;14.90;6.13;;;6.90;99.90;;;;;;5028863;28;20518;-67
2022/11/13 00:21:07;;;;;;;15.15;6.20;;;7.00;99.90;;;;;;5021455;28;20029;-67
2022/11/13 00:23:34;;;;;;;13.15;5.90;;;7.00;99.90;;;;;;5030325;28;20072;-68
2022/11/13 00:26:08;;;;;;;13.88;6.30;;;6.90;99.90;;;;;;5042478;28;20021;-67
2022/11/13 00:28:33;;;;;;;;;;;6.90;99.90;;;;;;5030809;28;20036;-68
2022/11/13 00:31:01;;;;;;;12.68;6.07;;;6.80;99.90;;;;;;5033133;28;19905;-67
2022/11/13 00:33:27;;;;;;;17.10;5.65;;;6.80;99.90;;;;;;5028472;28;20079;-67
2022/11/13 00:35:53;;;;;;;8.20;5.35;;;6.70;99.90;;;;;;5030467;28;20410;-67
2022/11/13 00:38:18;;;;;;;11.20;5.80;;;6.70;99.90;;;;;;5025856;28;20032;-67
2022/11/13 00:40:44;;;;;;;10.68;5.78;;;6.70;99.90;;;;;;5030703;28;20060;-67
2022/11/13 00:43:10;;;;;;;13.48;5.95;;;6.70;99.90;;;;;;5035558;28;20052;-67
2022/11/13 00:45:35;;;;;;;9.73;5.20;;;6.60;99.90;;;;;;5021975;28;20116;-67
2022/11/13 00:48:01;;;;;;;8.55;5.18;;;6.50;99.90;;;;;;5022079;28;20022;-67
2022/11/13 00:50:26;;;;;;;12.50;5.78;;;6.50;99.90;;;;;;5024238;28;20034;-67
2022/11/13 00:52:52;;;;;;;8.80;5.25;;;6.50;99.90;;;;;;5026048;28;20400;-67
2022/11/13 00:55:18;;;;;;;9.88;5.00;;;6.40;99.90;;;;;;5021429;28;20040;-67
2022/11/13 00:57:43;;;;;;;9.50;4.97;;;6.30;99.90;;;;;;5021550;28;20809;-67
2022/11/13 01:00:10;;;;;;;10.43;4.78;;;6.30;99.90;;;;;;5027705;28;20120;-68
2022/11/13 01:02:35;;;;;;;7.47;4.65;;;6.20;99.90;;;;;;5009795;28;20430;-67
2022/11/13 01:05:01;;;;;;;9.05;4.53;;;6.10;99.90;;;;;;5038109;28;20032;-67
2022/11/13 01:07:27;;;;;;;11.10;5.13;;;6.00;99.90;;;;;;5028150;28;20060;-68
2022/11/13 01:09:52;;;;;;;8.70;5.60;;;6.00;99.90;;;;;;5029559;28;20038;-67
2022/11/13 01:12:18;;;;;;;8.15;4.70;;;6.00;99.90;;;;;;5021735;28;20058;-67
2022/11/13 01:14:43;;;;;;;7.45;4.15;;;6.00;99.90;;;;;;5013391;28;20109;-68
2022/11/13 01:17:09;;;;;;;9.43;4.28;;;6.00;99.90;;;;;;5017694;28;20025;-67
2022/11/13 01:19:35;;;;;;;7.90;4.88;;;5.90;99.90;;;;;;5024243;28;20029;-67
2022/11/13 01:22:00;;;;;;;8.73;4.93;;;5.90;99.90;;;;;;5029274;28;20052;-67
2022/11/13 01:24:27;;;;;;;9.30;4.63;;;5.90;99.90;;;;;;5030361;28;20045;-67
2022/11/13 01:26:53;;;;;;;8.95;4.53;;;5.90;99.90;;;;;;5024084;28;20559;-67
2022/11/13 01:29:18;;;;;;;8.27;4.57;;;5.90;99.90;;;;;;5026209;28;20441;-67
2022/11/13 01:31:44;;;;;;;9.25;5.10;;;5.90;99.90;;;;;;5020888;28;20534;-67
2022/11/13 01:34:09;;;;;;;7.85;4.32;;;5.90;99.90;;;;;;5037657;28;20033;-67
2022/11/13 01:36:35;;;;;;;8.25;4.55;;;5.90;99.90;;;;;;5028174;28;20384;-67
2022/11/13 01:39:00;;;;;;;8.52;4.28;;;5.90;99.90;;;;;;5027093;28;20033;-67
2022/11/13 01:41:31;;;;;;;12.05;4.60;;;5.80;99.90;;;;;;5024141;28;20030;-67
2022/11/13 01:43:59;;;;;;;7.88;4.40;;;5.80;99.90;;;;;;5026177;28;20070;-67
2022/11/13 01:46:33;;;;;;;8.23;4.63;;;5.80;99.90;;;;;;5022109;28;20513;-67
2022/11/13 01:49:16;;;;;;;7.63;4.22;;;5.80;99.90;;;;;;5020271;28;20038;-67
2022/11/13 01:51:57;;;;;;;8.55;4.47;;;5.70;99.90;;;;;;5034019;28;20033;-67
2022/11/13 01:54:30;;;;;;;8.43;4.60;;;5.70;99.90;;;;;;5028824;28;20060;-68
2022/11/13 01:56:56;;;;;;;7.03;4.15;;;5.70;99.90;;;;;;5022780;28;20033;-67
2022/11/13 01:59:28;;;;;;;6.45;4.18;;;5.70;99.90;;;;;;5035732;28;20087;-67
2022/11/13 02:01:55;;;;;;;10.48;3.65;;;5.60;99.90;;;;;;5026432;28;20475;-67
2022/11/13 02:04:21;;;;;;;6.00;3.95;;;5.60;99.90;;;;;;5014825;28;20075;-67
2022/11/13 02:06:51;;;;;;;6.80;4.18;;;5.50;99.90;;;;;;5024722;28;20013;-68
2022/11/13 02:09:19;;;;;;;7.05;4.00;;;5.50;99.90;;;;;;5024620;28;20022;-68
2022/11/13 02:11:45;;;;;;;9.13;4.85;;;5.40;99.90;;;;;;5033324;28;20040;-67
2022/11/13 02:14:12;;;;;;;6.68;3.95;;;5.40;99.90;;;;;;5027070;28;20026;-67
2022/11/13 02:16:41;;;;;;;7.90;4.53;;;5.40;99.90;;;;;;5020857;28;20029;-67
2022/11/13 02:19:15;;;;;;;9.98;5.05;;;5.40;99.90;;;;;;5034574;28;20028;-67
2022/11/13 02:21:50;;;;;;;10.65;4.55;;;5.40;99.90;;;;;;5026709;28;20376;-67
2022/11/13 02:24:45;;;;;;;8.07;4.32;;;5.40;99.90;;;;;;5018911;28;20045;-67
2022/11/13 02:27:25;;;;;;;15.02;5.07;;;5.40;99.90;;;;;;5010158;28;20041;-68
2022/11/13 02:29:50;;;;;;;10.23;5.78;;;5.40;99.90;;;;;;5035479;28;20076;-67
2022/11/13 02:32:16;;;;;;;10.43;4.88;;;5.40;99.90;;;;;;5026270;28;20075;-66
2022/11/13 02:34:41;;;;;;;7.30;4.50;;;5.40;99.90;;;;;;5036633;28;20033;-66
2022/11/13 02:37:07;;;;;;;9.25;4.90;;;5.30;99.90;;;;;;5032256;28;20391;-67
2022/11/13 02:39:33;;;;;;;8.85;4.47;;;5.30;99.90;;;;;;5028709;28;20033;-67
2022/11/13 02:41:58;;;;;;;7.68;4.97;;;5.20;99.90;;;;;;5029091;28;20038;-66
2022/11/13 02:44:24;;;;;;;8.00;5.00;;;5.20;99.90;;;;;;5032012;28;20116;-67
2022/11/13 02:46:49;;;;;;;7.72;4.30;;;5.10;99.90;;;;;;5036866;28;20018;-68
2022/11/13 02:49:15;;;;;;;10.38;4.90;;;5.10;99.90;;;;;;5033475;28;20036;-67
2022/11/13 02:51:40;;;;;;;8.82;4.35;;;5.10;99.90;;;;;;5033790;28;20055;-67
2022/11/13 02:54:06;;;;;;;9.82;4.47;;;5.10;99.90;;;;;;5033933;28;20056;-67
2022/11/13 02:56:31;;;;;;;8.93;4.88;;;5.10;99.90;;;;;;5024708;28;20048;-67
2022/11/13 02:58:57;;;;;;;10.23;4.65;;;5.20;99.90;;;;;;5033012;28;20025;-67
2022/11/13 03:01:23;;;;;;;10.32;5.15;;;5.30;99.90;;;;;;5041806;28;20044;-67
2022/11/13 03:03:48;;;;;;;9.13;4.63;;;5.30;99.90;;;;;;5015441;28;20083;-68
2022/11/13 03:06:14;;;;;;;10.30;5.00;;;5.20;99.90;;;;;;5030589;28;20034;-67
2022/11/13 03:08:39;;;;;;;7.60;4.78;;;5.20;99.90;;;;;;5026456;28;20475;-67
2022/11/13 03:11:10;;;;;;;9.15;5.22;;;5.20;99.90;;;;;;5026168;28;20380;-67
2022/11/13 03:13:36;;;;;;;9.25;5.47;;;5.20;99.90;;;;;;5032261;28;20083;-67
2022/11/13 03:16:11;;;;;;;10.55;4.72;;;5.10;99.90;;;;;;5027017;28;20018;-67
2022/11/13 03:18:36;;;;;;;8.45;5.00;;;5.10;99.90;;;;;;5029815;28;20053;-67
2022/11/13 03:21:10;;;;;;;9.27;4.53;;;5.10;99.90;;;;;;5022202;28;20073;-67
2022/11/13 03:23:36;;;;;;;6.95;3.95;;;5.00;99.90;;;;;;5034046;28;20372;-67
2022/11/13 03:26:06;;;;;;;6.78;4.05;;;5.00;99.90;;;;;;5040186;28;20080;-67
2022/11/13 03:28:33;;;;;;;10.70;5.03;;;5.00;99.90;;;;;;5049244;23;20032;-64
2022/11/13 03:30:58;;;;;;;9.80;4.07;;;5.00;99.90;;;;;;5018555;28;20061;-64
2022/11/13 03:33:24;;;;;;;8.30;4.80;;;5.00;99.90;;;;;;5019956;28;20048;-64
2022/11/13 03:35:50;;;;;;;8.48;4.45;;;4.90;99.90;;;;;;5022911;28;20034;-64
2022/11/13 03:38:15;;;;;;;8.10;4.35;;;5.00;99.90;;;;;;5030435;28;20447;-64
2022/11/13 03:40:42;;;;;;;9.43;3.92;;;4.90;99.90;;;;;;5018764;28;20133;-64
2022/11/13 03:43:07;;;;;;;9.05;3.95;;;5.00;99.90;;;;;;5019795;28;20060;-64
2022/11/13 03:45:33;;;;;;;7.53;3.85;;;5.00;99.90;;;;;;5024918;28;20061;-65
2022/11/13 03:47:58;;;;;;;9.30;3.80;;;5.10;99.90;;;;;;5019793;28;20038;-64
2022/11/13 03:50:24;;;;;;;9.70;3.78;;;5.20;99.90;;;;;;5017717;28;20033;-65
2022/11/13 03:52:50;;;;;;;6.28;3.58;;;5.20;99.90;;;;;;5026973;28;20028;-63
2022/11/13 03:55:16;;;;;;;10.73;3.35;;;5.20;99.90;;;;;;5022471;28;20068;-64
2022/11/13 03:57:42;;;;;;;7.28;3.45;;;5.10;99.90;;;;;;5016227;28;20049;-62
2022/11/13 04:00:08;;;;;;;7.05;2.72;;;5.00;99.90;;;;;;5015605;28;20049;-63
2022/11/13 04:02:34;;;;;;;6.97;3.40;;;5.00;99.90;;;;;;5010373;28;20046;-64
2022/11/13 04:04:59;;;;;;;7.18;3.58;;;4.90;99.90;;;;;;5026335;28;20071;-62
2022/11/13 04:07:25;;;;;;;9.95;3.72;;;4.90;99.90;;;;;;5023376;28;20033;-64
2022/11/13 04:09:51;;;;;;;8.88;2.95;;;4.90;99.90;;;;;;5027465;28;20037;-64
2022/11/13 04:12:16;;;;;;;4.75;2.67;;;4.80;99.90;;;;;;5031959;28;20026;-64
2022/11/13 04:14:42;;;;;;;4.75;2.72;;;4.70;99.90;;;;;;5029755;28;20063;-63
2022/11/13 04:17:07;;;;;;;7.80;3.13;;;4.70;99.90;;;;;;5023689;28;20190;-64
2022/11/13 04:19:33;;;;;;;4.50;2.45;;;4.70;99.90;;;;;;5023985;28;20018;-63
2022/11/13 04:21:58;;;;;;;4.85;2.50;;;4.60;99.90;;;;;;5029311;28;20029;-63
2022/11/13 04:24:24;;;;;;;6.70;2.83;;;4.60;99.90;;;;;;5022972;28;20029;-64
2022/11/13 04:26:49;;;;;;;5.80;2.92;;;4.60;99.90;;;;;;5031641;28;20021;-64
2022/11/13 04:29:15;;;;;;;5.00;2.92;;;4.50;99.90;;;;;;5018920;28;20033;-64
2022/11/13 04:31:40;;;;;;;4.18;2.70;;;4.40;99.90;;;;;;5029839;28;20026;-64
2022/11/13 04:34:07;;;;;;;4.30;2.55;;;4.40;99.90;;;;;;5029560;28;20026;-65
2022/11/13 04:36:32;;;;;;;4.82;2.75;;;4.40;99.90;;;;;;5029070;28;20038;-63
2022/11/13 04:38:58;;;;;;;6.65;2.70;;;4.40;99.90;;;;;;5029696;28;20079;-64
2022/11/13 04:44:08;;;;;;;7.35;3.67;;;4.30;99.90;;;;;;5020558;28;20040;-63
2022/11/13 04:46:33;;;;;;;8.30;4.50;;;4.30;99.90;;;;;;5028853;28;20030;-63
2022/11/13 04:48:59;;;;;;;10.15;4.93;;;4.30;99.90;;;;;;5017020;28;20029;-63
2022/11/13 04:51:24;;;;;;;9.57;5.10;;;4.30;99.90;;;;;;5023423;28;20092;-64
2022/11/13 04:53:50;;;;;;;14.70;5.40;;;4.40;99.90;;;;;;5030621;28;20136;-63
2022/11/13 04:56:16;;;;;;;9.30;4.45;;;4.30;99.90;;;;;;5030452;28;20026;-62
2022/11/13 04:58:41;;;;;;;6.35;4.15;;;4.30;99.90;;;;;;5023760;28;20044;-63
2022/11/13 05:01:07;;;;;;;9.32;5.07;;;4.30;99.90;;;;;;5027165;28;20033;-63
2022/11/13 05:03:33;;;;;;;7.43;4.40;;;4.40;99.90;;;;;;5007540;28;20056;-64
2022/11/13 05:06:03;;;;;;;9.00;4.60;;;4.40;99.90;;;;;;5017538;28;20502;-64
2022/11/13 05:08:29;;;;;;;9.00;4.13;;;4.60;99.90;;;;;;5027792;28;20554;-64
2022/11/13 05:10:54;;;;;;;8.93;4.35;;;4.60;99.90;;;;;;5022357;28;20105;-63
2022/11/13 05:13:20;;;;;;;10.63;4.10;;;4.70;99.90;;;;;;5030294;28;20049;-63
2022/11/13 05:15:45;;;;;;;6.60;3.45;;;4.70;99.90;;;;;;5024534;28;20032;-64
2022/11/13 05:18:11;;;;;;;6.45;3.63;;;4.70;99.90;;;;;;5024433;28;20060;-65
2022/11/13 05:20:37;;;;;;;5.40;2.58;;;4.70;99.90;;;;;;5023148;28;20033;-64
2022/11/13 05:23:02;;;;;;;5.80;3.08;;;4.80;99.90;;;;;;5016106;28;20018;-64
2022/11/13 05:25:29;;;;;;;4.18;3.13;;;4.90;99.90;;;;;;5018871;28;20029;-64
2022/11/13 05:27:57;;;;;;;8.88;2.90;;;4.90;99.90;;;;;;5019014;28;20017;-64
2022/11/13 05:30:23;;;;;;;5.20;2.78;;;5.00;99.90;;;;;;5025495;28;20710;-64
2022/11/13 05:32:48;;;;;;;8.10;3.28;;;4.90;99.90;;;;;;5021003;28;20093;-63
2022/11/13 05:35:14;;;;;;;7.28;3.63;;;5.00;99.90;;;;;;5018227;28;20030;-64
2022/11/13 05:37:40;;;;;;;5.43;2.50;;;5.00;99.90;;;;;;5019288;28;20534;-64
2022/11/13 05:40:06;;;;;;;6.00;3.35;;;5.00;99.90;;;;;;5027177;28;20030;-65
2022/11/13 05:42:31;;;;;;;7.05;3.25;;;5.10;99.90;;;;;;5025243;28;20021;-64
2022/11/13 05:44:57;;;;;;;5.03;2.95;;;5.20;99.90;;;;;;5023648;28;20044;-64
2022/11/13 05:47:22;;;;;;;4.85;2.70;;;5.20;99.90;;;;;;5023316;28;20022;-63
2022/11/13 05:49:48;;;;;;;14.15;5.68;;;5.30;99.90;;;;;;5019409;28;20109;-64
2022/11/13 05:52:13;;;;;;;23.27;9.38;;;5.30;99.90;;;;;;5019511;28;20018;-65
2022/11/13 05:54:39;;;;;;;16.40;8.95;;;5.30;99.90;;;;;;5016259;28;20036;-63
2022/11/13 05:57:04;;;;;;;13.23;5.85;;;5.40;99.90;;;;;;5023552;28;20571;-64
2022/11/13 05:59:30;;;;;;;6.82;4.20;;;5.30;99.90;;;;;;5029904;28;20487;-64
2022/11/13 06:01:56;;;;;;;5.95;3.42;;;5.30;99.90;;;;;;5022647;28;20394;-64
2022/11/13 06:04:21;;;;;;;6.88;4.22;;;5.30;99.90;;;;;;5012627;28;20251;-64
2022/11/13 06:06:47;;;;;;;8.43;4.82;;;5.30;99.90;;;;;;5038739;28;20022;-64
2022/11/13 06:09:16;;;;;;;8.73;4.53;;;5.40;99.90;;;;;;5020749;28;20184;-64
2022/11/13 06:11:42;;;;;;;9.00;6.30;;;5.60;99.90;;;;;;5017252;28;20755;-64
2022/11/13 06:14:07;;;;;;;15.70;9.77;;;5.60;99.90;;;;;;5025962;28;20036;-64
2022/11/13 06:16:35;;;;;;;37.35;19.02;;;5.50;99.90;;;;;;5017154;28;20022;-64
2022/11/13 06:19:03;;;;;;;37.30;18.80;;;5.60;99.90;;;;;;5020001;28;20112;-64
2022/11/13 06:21:33;;;;;;;25.58;13.35;;;5.80;99.90;;;;;;5025885;28;20036;-63
2022/11/13 06:24:00;;;;;;;14.98;8.48;;;5.80;99.90;;;;;;5027085;28;20026;-64
2022/11/13 06:26:30;;;;;;;11.25;7.47;;;5.80;99.90;;;;;;5021643;28;20037;-64
2022/11/13 06:28:57;;;;;;;11.00;6.68;;;5.90;99.90;;;;;;5024070;28;20037;-65
2022/11/13 06:31:26;;;;;;;8.63;4.70;;;6.00;99.90;;;;;;5025768;28;20076;-64
2022/11/13 06:33:52;;;;;;;5.88;3.50;;;6.00;99.90;;;;;;5029299;28;20068;-64
2022/11/13 06:36:23;;;;;;;7.18;3.35;;;5.90;99.90;;;;;;5020229;28;20064;-64
2022/11/13 06:38:50;;;;;;;6.57;3.58;;;6.10;99.90;;;;;;5026587;28;20068;-65
2022/11/13 06:41:18;;;;;;;5.28;3.13;;;6.00;99.90;;;;;;5017382;28;20038;-63
2022/11/13 06:43:44;;;;;;;4.47;2.55;;;6.00;99.90;;;;;;5026151;28;20089;-64
2022/11/13 06:46:18;;;;;;;6.53;3.28;;;5.90;99.90;;;;;;5025517;28;20104;-63
2022/11/13 06:48:44;;;;;;;7.80;2.70;;;5.80;99.90;;;;;;5021920;28;20625;-64
2022/11/13 06:51:25;;;;;;;4.45;2.72;;;5.70;99.90;;;;;;5024841;28;20033;-65
2022/11/13 06:53:51;;;;;;;4.82;2.15;;;5.60;99.90;;;;;;5023792;28;20033;-63
2022/11/13 06:56:18;;;;;;;4.35;2.35;;;5.50;99.90;;;;;;5023149;28;20087;-64
2022/11/13 06:58:44;;;;;;;3.88;2.30;;;5.40;99.90;;;;;;5019345;28;20116;-64
2022/11/13 07:01:15;;;;;;;9.00;2.60;;;5.40;99.90;;;;;;5027708;28;20034;-64
2022/11/13 07:03:41;;;;;;;9.55;2.83;;;5.40;99.90;;;;;;5013305;28;20045;-64
2022/11/13 07:06:12;;;;;;;4.45;2.17;;;5.40;99.90;;;;;;5021531;28;20033;-64
2022/11/13 07:08:39;;;;;;;4.22;2.25;;;5.40;99.90;;;;;;5023175;28;20038;-63
2022/11/13 07:11:06;;;;;;;4.88;2.35;;;5.40;99.90;;;;;;5027022;28;20068;-63
2022/11/13 07:13:32;;;;;;;3.92;2.38;;;5.40;99.90;;;;;;5019504;28;20051;-63
2022/11/13 07:16:02;;;;;;;5.15;2.97;;;5.40;99.90;;;;;;5019141;28;20480;-64
2022/11/13 07:18:29;;;;;;;4.30;2.35;;;5.50;99.90;;;;;;5026045;28;20040;-64
2022/11/13 07:20:55;;;;;;;4.22;2.35;;;5.60;99.90;;;;;;5019090;28;20036;-64
2022/11/13 07:23:20;;;;;;;3.65;2.20;;;5.70;99.90;;;;;;5023877;28;20108;-64
2022/11/13 07:25:46;;;;;;;4.72;2.33;;;5.70;99.90;;;;;;5019364;28;20034;-64
2022/11/13 07:28:11;;;;;;;4.82;2.20;;;5.70;99.90;;;;;;5022409;28;20095;-64
2022/11/13 07:30:37;;;;;;;4.97;2.47;;;5.70;99.90;;;;;;5021613;28;20048;-64
2022/11/13 07:33:03;;;;;;;4.97;2.22;;;5.70;99.90;;;;;;5023059;28;20036;-63
2022/11/13 07:35:28;;;;;;;4.45;1.55;;;5.70;99.90;;;;;;5014719;28;20042;-64
2022/11/13 07:37:55;;;;;;;2.67;1.48;;;5.90;99.90;;;;;;5018263;28;20022;-64
2022/11/13 07:40:21;;;;;;;2.40;1.75;;;6.00;99.90;;;;;;5022316;28;20092;-63
2022/11/13 07:42:46;;;;;;;4.25;1.83;;;6.20;99.90;;;;;;5016658;28;20030;-64
2022/11/13 07:45:12;;;;;;;4.10;2.10;;;6.40;99.90;;;;;;5015883;28;20033;-65
2022/11/13 07:47:37;;;;;;;4.95;2.10;;;6.60;99.90;;;;;;5026963;28;20026;-64
2022/11/13 07:50:03;;;;;;;3.28;2.10;;;6.70;99.90;;;;;;5021099;28;20021;-65
2022/11/13 07:52:29;;;;;;;4.18;2.40;;;6.80;99.90;;;;;;5016347;28;20511;-65
2022/11/13 07:54:55;;;;;;;5.05;2.40;;;6.80;99.90;;;;;;5024504;28;20098;-65
2022/11/13 07:57:21;;;;;;;3.88;2.45;;;6.90;99.90;;;;;;5020750;28;20395;-64
2022/11/13 07:59:47;;;;;;;5.93;2.65;;;6.90;99.90;;;;;;5021498;28;20086;-64
2022/11/13 08:02:15;;;;;;;4.32;1.90;;;6.90;99.90;;;;;;5021516;28;20040;-63
2022/11/13 08:04:41;;;;;;;3.38;2.33;;;6.90;99.90;;;;;;5008927;28;20045;-64
2022/11/13 08:07:07;;;;;;;4.55;2.20;;;6.90;99.90;;;;;;5023366;28;20488;-63
2022/11/13 08:09:32;;;;;;;4.38;2.42;;;7.00;99.90;;;;;;5028166;28;20073;-63
2022/11/13 08:11:58;;;;;;;4.43;2.13;;;7.10;99.90;;;;;;5025337;28;20510;-65
2022/11/13 08:14:23;;;;;;;2.78;1.75;;;7.10;99.90;;;;;;5027119;28;20041;-64
2022/11/13 08:16:49;;;;;;;2.05;1.60;;;7.30;99.90;;;;;;5020914;28;20410;-64
2022/11/13 08:19:14;;;;;;;2.90;1.83;;;7.40;99.90;;;;;;5029221;28;20106;-64
2022/11/13 08:21:40;;;;;;;3.03;1.75;;;7.60;99.90;;;;;;5024873;28;20121;-65
2022/11/13 08:24:06;;;;;;;1.90;1.10;;;7.70;99.90;;;;;;5022703;28;20037;-64
2022/11/13 08:26:31;;;;;;;4.07;1.83;;;7.80;99.90;;;;;;5025507;28;20029;-64
2022/11/13 08:28:57;;;;;;;5.00;1.65;;;8.00;99.90;;;;;;5018597;28;20040;-64
2022/11/13 08:31:22;;;;;;;2.58;1.40;;;8.20;99.90;;;;;;5015070;28;20036;-64
2022/11/13 08:33:48;;;;;;;2.30;1.58;;;8.40;99.80;;;;;;5025467;28;20025;-64
2022/11/13 08:36:13;;;;;;;2.50;1.42;;;8.60;99.90;;;;;;5024694;28;20041;-64
2022/11/13 08:38:39;;;;;;;1.95;1.65;;;8.70;99.90;;;;;;5016602;28;20036;-64
2022/11/13 08:41:05;;;;;;;3.17;1.67;;;8.70;99.90;;;;;;5024026;28;20026;-64
2022/11/13 08:43:31;;;;;;;5.43;1.85;;;8.70;99.90;;;;;;5024093;28;20031;-64
2022/11/13 08:45:56;;;;;;;2.75;1.90;;;8.80;99.90;;;;;;5022487;28;20018;-65
2022/11/13 08:48:23;;;;;;;4.60;2.40;;;8.70;99.90;;;;;;5013211;28;20049;-65
2022/11/13 08:50:56;;;;;;;3.40;2.00;;;8.70;99.90;;;;;;5027118;28;20028;-64
2022/11/13 08:53:22;;;;;;;4.70;1.87;;;8.60;99.90;;;;;;5030836;28;20056;-65
2022/11/13 08:55:48;;;;;;;3.42;2.25;;;8.60;99.90;;;;;;5027752;28;20033;-64
2022/11/13 08:58:14;;;;;;;5.20;2.05;;;8.50;99.90;;;;;;5019890;28;20453;-64
2022/11/13 09:00:39;;;;;;;4.03;2.13;;;8.50;99.90;;;;;;5020748;28;20036;-64
2022/11/13 09:03:05;;;;;;;6.35;2.33;;;8.40;99.90;;;;;;5020085;28;20081;-64
2022/11/13 09:05:31;;;;;;;4.03;2.20;;;8.30;99.90;;;;;;5028649;28;20079;-65
2022/11/13 09:07:58;;;;;;;6.18;3.05;;;8.30;99.90;;;;;;5028944;28;20025;-65
2022/11/13 09:10:25;;;;;;;6.32;3.20;;;8.30;99.90;;;;;;5021825;28;20029;-64
2022/11/13 09:12:58;;;;;;;4.47;2.38;;;8.50;99.90;;;;;;5029328;28;20025;-65
2022/11/13 09:15:24;;;;;;;3.92;1.85;;;8.60;99.90;;;;;;5038467;28;20083;-64
2022/11/13 09:17:50;;;;;;;4.53;2.50;;;8.80;99.90;;;;;;5017212;28;20108;-64
2022/11/13 09:20:15;;;;;;;6.75;2.90;;;8.90;99.90;;;;;;5025781;28;20120;-63
2022/11/13 09:22:41;;;;;;;3.67;2.55;;;9.20;99.90;;;;;;5019802;28;20099;-64
2022/11/13 09:25:07;;;;;;;4.30;2.35;;;9.60;99.90;;;;;;5022772;28;20033;-65
2022/11/13 09:27:32;;;;;;;3.25;2.45;;;10.00;99.90;;;;;;5023933;28;20044;-65
2022/11/13 09:29:58;;;;;;;3.83;2.75;;;10.50;99.90;;;;;;4982475;28;1107913;-65
2022/11/13 09:32:24;;;;;;;4.15;2.15;;;11.00;99.10;;;;;;5022488;28;20029;-64
2022/11/13 09:34:49;;;;;;;3.67;1.98;;;11.30;98.50;;;;;;5024587;28;20029;-65
2022/11/13 09:37:15;;;;;;;3.55;2.03;;;11.80;97.20;;;;;;5028409;28;20028;-65
2022/11/13 09:39:41;;;;;;;2.17;1.50;;;12.20;94.40;;;;;;5017312;28;20025;-65
2022/11/13 09:42:23;;;;;;;3.20;1.80;;;12.30;92.10;;;;;;5021867;28;20026;-64
2022/11/13 09:45:01;;;;;;;2.63;1.20;;;12.40;91.20;;;;;;5023582;28;20391;-66
2022/11/13 09:47:36;;;;;;;1.70;1.20;;;12.40;90.80;;;;;;5021254;28;20091;-65
2022/11/13 09:50:22;;;;;;;2.85;1.90;;;12.40;88.20;;;;;;5029245;28;20025;-65
2022/11/13 09:52:48;;;;;;;2.72;1.50;;;12.40;88.30;;;;;;5014873;28;20033;-65
2022/11/13 09:55:19;;;;;;;3.60;1.83;;;12.40;87.60;;;;;;5022529;28;20021;-64
2022/11/13 09:58:11;;;;;;;3.22;1.55;;;12.40;90.80;;;;;;5012867;28;20543;-64
2022/11/13 10:00:37;;;;;;;2.47;1.75;;;12.40;90.40;;;;;;5030056;28;20087;-64
2022/11/13 10:03:23;;;;;;;3.97;2.00;;;12.40;91.00;;;;;;5015099;28;20104;-64
2022/11/13 10:06:07;;;;;;;3.85;1.80;;;12.50;92.90;;;;;;5020649;28;20538;-64
2022/11/13 10:08:53;;;;;;;3.85;2.25;;;12.50;93.90;;;;;;5015794;28;20057;-64
2022/11/13 10:11:47;;;;;;;3.08;1.65;;;12.60;94.30;;;;;;5014470;28;20564;-64
2022/11/13 10:14:12;;;;;;;2.40;1.50;;;12.60;93.30;;;;;;5011101;28;20025;-64
2022/11/13 10:16:41;;;;;;;2.85;1.80;;;12.60;93.80;;;;;;5028706;28;20028;-64
2022/11/13 10:19:29;;;;;;;3.33;2.33;;;12.70;93.10;;;;;;4989653;28;20224;-65
2022/11/13 10:22:03;;;;;;;2.78;1.95;;;12.70;94.20;;;;;;5035422;22;20111;-67
2022/11/13 10:24:38;;;;;;;2.72;1.80;;;12.70;94.90;;;;;;5020504;28;20150;-66
2022/11/13 10:27:12;;;;;;;2.20;1.50;;;12.80;95.30;;;;;;5017784;28;20101;-69
2022/11/13 10:29:39;;;;;;;3.25;1.65;;;12.80;94.80;;;;;;5024699;28;20021;-69
2022/11/13 10:32:21;;;;;;;3.45;2.00;;;12.90;93.60;;;;;;5015141;28;20034;-71
2022/11/13 10:35:13;;;;;;;6.03;2.08;;;13.00;94.30;;;;;;5018110;28;20108;-69
2022/11/13 10:37:41;;;;;;;2.65;1.80;;;13.00;94.50;;;;;;5031249;28;20029;-69
2022/11/13 10:40:07;;;;;;;3.40;2.05;;;13.10;92.80;;;;;;5016799;28;20115;-69
2022/11/13 10:42:39;;;;;;;2.42;1.80;;;13.10;93.60;;;;;;5024286;28;20064;-69
2022/11/13 10:45:14;;;;;;;3.83;1.70;;;13.10;93.70;;;;;;5019549;28;20084;-68
2022/11/13 10:47:46;;;;;;;3.35;1.60;;;13.20;92.70;;;;;;5014173;28;20395;-68
2022/11/13 10:50:21;;;;;;;2.15;1.77;;;13.20;92.60;;;;;;5016443;28;20040;-67
2022/11/13 10:52:49;;;;;;;4.40;1.70;;;13.30;92.30;;;;;;5015738;28;20402;-67
2022/11/13 10:55:34;;;;;;;4.35;1.58;;;13.40;93.00;;;;;;5025426;28;20034;-68
2022/11/13 10:58:03;;;;;;;2.53;1.60;;;13.40;92.70;;;;;;5033237;28;20094;-67
2022/11/13 11:00:32;;;;;;;2.40;1.67;;;13.40;92.40;;;;;;5025373;28;20104;-67
2022/11/13 11:02:58;;;;;;;2.83;1.50;;;13.50;92.10;;;;;;5024630;28;20020;-68
2022/11/13 11:05:25;;;;;;;3.45;1.70;;;13.40;92.20;;;;;;5025333;28;20033;-67
2022/11/13 11:07:54;;;;;;;2.20;1.30;;;13.50;91.40;;;;;;5018507;28;20032;-68
2022/11/13 11:10:31;;;;;;;2.78;1.77;;;13.50;90.90;;;;;;5022730;28;20036;-67
2022/11/13 11:13:23;;;;;;;2.40;1.52;;;13.60;91.40;;;;;;5028283;28;20033;-67
2022/11/13 11:15:55;;;;;;;4.28;1.65;;;13.60;91.80;;;;;;5019107;28;20041;-68
2022/11/13 11:18:26;;;;;;;2.30;1.45;;;13.60;92.20;;;;;;5011204;28;20040;-67
2022/11/13 11:21:01;;;;;;;2.85;1.63;;;13.70;91.00;;;;;;5019813;28;20488;-67
2022/11/13 11:23:48;;;;;;;2.78;1.70;;;13.60;91.60;;;;;;5020185;28;20026;-67
2022/11/13 11:26:36;;;;;;;3.28;2.00;;;13.70;91.90;;;;;;5018196;28;20021;-67
2022/11/13 11:29:25;;;;;;;2.85;1.40;;;13.70;91.00;;;;;;5018665;28;20029;-67
2022/11/13 11:32:18;;;;;;;2.92;1.90;;;13.70;91.30;;;;;;5020163;28;20055;-66
2022/11/13 11:34:47;;;;;;;2.55;1.80;;;13.70;91.10;;;;;;5017086;28;20120;-67
2022/11/13 11:37:24;;;;;;;4.35;1.50;;;13.70;90.60;;;;;;5023919;28;20038;-67
2022/11/13 11:39:53;;;;;;;2.63;1.50;;;13.70;90.50;;;;;;5026764;28;20499;-67
2022/11/13 11:42:33;;;;;;;5.18;1.65;;;13.70;90.70;;;;;;5025506;28;20021;-67
2022/11/13 11:45:22;;;;;;;2.58;1.55;;;13.80;90.90;;;;;;5016399;28;20022;-69
2022/11/13 11:47:48;;;;;;;2.10;1.42;;;13.80;90.10;;;;;;5021872;28;20018;-67
2022/11/13 11:50:21;;;;;;;2.53;1.50;;;13.80;91.10;;;;;;5025862;28;20067;-67
2022/11/13 11:53:04;;;;;;;3.45;1.48;;;13.90;90.80;;;;;;5025160;28;20026;-67
2022/11/13 11:55:48;;;;;;;1.80;1.40;;;13.90;90.30;;;;;;5025221;28;20463;-67
2022/11/13 11:58:20;;;;;;;;;;;13.90;89.60;;;;;;5027838;28;20037;-68
2022/11/13 12:00:51;;;;;;;1.80;1.23;;;13.90;90.10;;;;;;5021610;28;19908;-67
2022/11/13 12:04:07;;;;;;;2.08;1.30;;;13.90;90.70;;;;;;5023375;28;20032;-67
2022/11/13 12:06:45;;;;;;;3.30;1.55;;;13.90;90.80;;;;;;5006255;28;20120;-67
2022/11/13 12:09:27;;;;;;;2.00;1.25;;;13.90;90.10;;;;;;5024329;28;20033;-67
2022/11/13 12:12:21;;;;;;;2.13;1.63;;;13.90;89.10;;;;;;5021381;28;21010;-67
2022/11/13 12:15:01;;;;;;;2.80;1.70;;;13.90;89.80;;;;;;5019860;28;20025;-67
2022/11/13 12:17:44;;;;;;;2.60;1.40;;;14.00;90.00;;;;;;5029815;28;20037;-67
2022/11/13 12:20:29;;;;;;;4.38;1.50;;;14.00;89.10;;;;;;5022886;28;20030;-67
2022/11/13 12:23:29;;;;;;;2.58;1.38;;;14.00;89.50;;;;;;5016690;28;20038;-69
2022/11/13 12:26:36;;;;;;;1.98;1.25;;;14.00;89.50;;;;;;4957648;28;20186;-67
2022/11/13 12:29:20;;;;;;;2.17;1.45;;;14.00;89.10;;;;;;5050895;28;20499;-69
2022/11/13 12:31:59;;;;;;;1.63;1.23;;;14.00;89.40;;;;;;5018170;28;20036;-69
2022/11/13 12:34:30;;;;;;;1.90;1.35;;;14.00;89.90;;;;;;5027289;28;20034;-67
2022/11/13 12:36:57;;;;;;;3.97;1.45;;;14.00;88.40;;;;;;5037387;28;20114;-69
2022/11/13 12:39:39;;;;;;;2.38;1.40;;;14.00;88.10;;;;;;5037777;28;20288;-69
2022/11/13 12:42:26;;;;;;;3.13;1.35;;;14.00;88.60;;;;;;5024160;28;20061;-69
2022/11/13 12:45:36;;;;;;;1.65;1.05;;;14.00;89.10;;;;;;5023337;28;20041;-69
2022/11/13 12:48:17;;;;;;;2.63;1.42;;;13.90;88.30;;;;;;4949852;28;20114;-69
2022/11/13 12:50:43;;;;;;;2.35;1.23;;;13.90;86.40;;;;;;5014876;28;20041;-68
2022/11/13 12:53:10;;;;;;;2.65;1.55;;;14.00;87.40;;;;;;5024432;28;20030;-68
2022/11/13 12:55:38;;;;;;;2.50;1.75;;;14.00;89.20;;;;;;5027857;28;20036;-68
2022/11/13 12:58:22;;;;;;;3.55;1.40;;;14.00;90.50;;;;;;5040209;28;20433;-68
2022/11/13 13:00:59;;;;;;;3.03;1.40;;;14.00;91.30;;;;;;5021265;28;20120;-69
2022/11/13 13:03:40;;;;;;;2.35;1.63;;;14.10;90.80;;;;;;5037670;28;20094;-68
2022/11/13 13:06:23;;;;;;;2.35;1.48;;;14.20;91.10;;;;;;5033629;28;20385;-68
2022/11/13 13:08:51;;;;;;;2.37;1.60;;;14.20;91.60;;;;;;5029501;28;20023;-67